General Mariano Matamoros Airport

Jump to: basic info | weather | frequencies | runways | comments

Related pages: nearby airports | nearby navaids | notams | map

Basic information (top)

Codes: CVJ MMCB
Location: lon 18.834801, lat -99.261299, elev 4,277 ft / 1,304 m msl
Status: medium_airport
Scheduled airline service: yes
Links: Wikipedia Mobile

Weather (top)

Current conditions (rec'd 2014/04/16 00:00Z):

MMCB 160000Z 15006KT 10SM SCT030 31/08 A2990 RMK 8/100

Airport forecast (rec'd 2014/03/31 06:42Z):

TAF COR TAF COR MMCB 310541Z 3106/0106 07005KT 6SM HZ SCT080 
     FM311800 06010KT 6SM HZ SCT030 
      TEMPO 0100/0103 6SM -TSRA BKN020CB 
     FM010500 05005KT 6SM HZ SKC

Frequencies (top)

Verify before use: may be inaccurate or out of date.

APP: 128.9 MHz (TOLUCA APP)
TWR: 118.35 MHz (CUERNAVACA TWR)

Runways (top)

02/20: 9,439 x 148 ft (2,877 x 45 m) — paved — lighted — threshold 20 displaced 260 ft (79 m)

Latest comments (top)

No comments yet for General Mariano Matamoros Airport

More... (top)

See also NOTAMs and nearby airports and navaids, or visit the General Mariano Matamoros Airport page at the main OurAirports website..